Terminal Aerodrome Forecast
Issued by NWS Louisville, KY

Home | Current Version | Previous Version | Text Only | Print | Product List | Glossary On
Versions: 1 2 3 4 5 6 7 8 9 10 11 12 13 14 15 16
000
FTUS43 KLMK 301700
TAFSDF
TAF
KSDF 301734Z 3018/3124 21009KT P6SM VCSH OVC130
     FM302200 19007KT P6SM -SHRA VCTS OVC070CB
     FM310600 19007KT 5SM -SHRA VCTS OVC030CB
     FM311700 20007KT P6SM VCSH BKN035=

USA.gov is the U.S. government's official web portal to all federal, state and local government web resources and services.